Flight Track Log - Related Links

Times and Time Zones

All times are in EDT time to prevent confusion due to time zone crossing. See the SWA1563 flight status page for this flight to view local times or setup timezone preferences in your user account.

Time Position Orientation Groundspeed Altitude Reporting Facility
EDT Latitude Longitude Course Direction KTS MPH feet Rate Location/Type
Sat 10:41:42 AM 32.8333 -96.8333 140° Southeast 171 197 1,300  Level Dallas / Fort Worth TRACON
Sat 10:42:28 AM 32.8000 -96.8000 140° Southeast 234 269 2,700 1,987 Climbing Dallas / Fort Worth TRACON
Sat 10:44:13 AM 32.6794 -96.8136 185° South 292 336 6,300 2,509 Climbing Fort Worth Center
Sat 10:45:13 AM 32.5942 -96.8364 193° South 292 336 9,600 2,269 Climbing Fort Worth Center
Sat 10:46:12 AM 32.5106 -96.8542 190° South 316 364 10,800 2,000 Climbing Fort Worth Center
Sat 10:47:13 AM 32.4042 -96.8794 191° South 374 430 13,600 3,050 Climbing Fort Worth Center
Sat 10:48:12 AM 32.2917 -96.9072 192° South 389 448 16,900 2,723 Climbing Fort Worth Center
Sat 10:49:12 AM 32.1831 -96.9322 191° South 394 453 19,000 1,934 Climbing Fort Worth Center
Sat 10:50:13 AM 32.0706 -96.9575 191° South 400 460 20,800 1,500 Climbing Fort Worth Center
Sat 10:51:12 AM 31.9558 -96.9897 193° South 414 476 22,000 605 Climbing Fort Worth Center
Sat 10:52:12 AM 31.8369 -97.0122 189° South 430 495 22,000  Level Fort Worth Center
Sat 10:52:59 AM 31.7583 -97.0306 191° South 436 502 22,000  Level Houston Center
Sat 10:54:01 AM 31.6381 -97.0569 191° South 435 501 22,000  Level Houston Center
Sat 10:55:03 AM 31.5000 -97.0933 193° South 432 497 22,000  Level Houston Center
Sat 10:56:04 AM 31.3844 -97.1394 199° South 433 498 22,000  Level Houston Center
Sat 10:57:06 AM 31.2706 -97.1858 199° South 431 496 22,000 -774 Level Houston Center
Sat 10:58:08 AM 31.1589 -97.2275 198° South 419 482 20,400 -1,839 Descending Houston Center
Sat 10:59:10 AM 31.0561 -97.2692 199° South 395 455 18,200 -2,129 Descending Houston Center
Sat 11:00:12 AM 30.9492 -97.3106 198° South 381 438 16,000 -2,129 Descending Houston Center
Sat 11:01:14 AM 30.8475 -97.3494 198° South 369 425 13,800 -2,049 Descending Houston Center
Sat 11:02:15 AM 30.7611 -97.3989 206° Southwest 348 400 11,800 -1,854 Descending Houston Center
Sat 11:03:17 AM 30.6825 -97.4642 216° Southwest 344 396 10,000 -1,403 Descending Houston Center
Sat 11:04:19 AM 30.6144 -97.5208 216° Southwest 308 354 8,900 -1,355 Descending Houston Center
Sat 11:05:21 AM 30.5492 -97.5769 217° Southwest 291 335 7,200 -1,659 Descending Houston Center
Sat 11:06:22 AM 30.4842 -97.6325 216° Southwest 288 331 5,500 -1,561 Descending Houston Center
Sat 11:07:24 AM 30.4189 -97.6828 214° Southwest 283 326 4,000 -1,210 Descending Houston Center
Sat 11:08:26 AM 30.3467 -97.6817 179° South 261 300 3,000 -968 Descending Houston Center
Sat 11:09:28 AM 30.2856 -97.6806 179° South 209 241 2,000 -871 Descending Houston Center
Sat 11:10:30 AM 30.2439 -97.6786 178° South 174 200 1,200 -774 Descending Houston Center

Login

Don't have an account? Register now (free) for customized features, flight alerts, and more!